Terminal Aerodrome Forecast
Issued by NWS

Home | Current Version | Previous Version | Text Only | Print | Product List | Glossary On
Versions: 1 2 3 4 5 6 7 8 9 10 11 12 13
000
FTUS44 KCRP 281740
TAFLRD
TAF
KLRD 281740Z 2818/2918 14014KT P6SM BKN035
     FM282000 15016G21KT P6SM SCT050 BKN250
     FM290600 12010KT P6SM VCTS BKN015 BKN035CB
     FM291100 15013KT P6SM BKN035=

USA.gov is the U.S. government's official web portal to all federal, state and local government web resources and services.